Latest Weather Observations for Hindmarsh Island

IDS60901

Issued at 3:31 am CST Monday 26 August 2019 (issued every 10 minutes, with the page automatically refreshed every 10 minutes)

About weather observations | Map of Adelaide area stations | Latest observations for Adelaide area | Other Formats
Station Details ID: 023894 Name: HINDMARSH ISLAND AWS Lat: -35.52 Lon: 138.82 Height: 11.0 m
Data from the previous 72 hours. | See also: Recent months at Hindmarsh Island
Date/Time
CST
Temp
°C
App
Temp
°C
Dew
Point
°C
Rel
Hum
%
Delta-T
°C
Wind Press
QNH
hPa
Press
MSL
hPa
Rain since
9am
mm
Dir  Spd
km/h
Gust
km/h
Spd
kts
Gust
kts
26/03:30am 8.3 4.9 5.8 84 1.1 WNW 13 15 7 8 1026.5 1026.5 0.8
26/03:00am 8.4 5.8 5.9 84 1.1 WNW 9 13 5 7 1026.6 1026.6 0.8
26/02:30am 9.3 6.4 6.7 84 1.2 WNW 11 13 6 7 1026.8 1026.8 0.8
26/02:00am 9.7 6.5 6.8 82 1.4 WSW 13 19 7 10 1026.9 1026.9 0.0
26/01:30am 8.6 5.6 5.9 83 1.2 W 11 13 6 7 1026.8 1026.8 0.0
26/01:00am 8.8 5.7 5.5 80 1.5 WNW 11 13 6 7 1027.0 1027.0 0.0
26/12:30am 9.8 6.9 6.3 79 1.6 W 11 13 6 7 1026.9 1026.9 0.0
26/12:00am 9.8 6.5 6.2 78 1.7 W 13 17 7 9 1027.0 1027.0 0.0
 
Date/Time
CST
Temp
°C
App
Temp
°C
Dew
Point
°C
Rel
Hum
%
Delta-T
°C
Wind Press
QNH
hPa
Press
MSL
hPa
Rain since
9am
mm
Dir  Spd
km/h
Gust
km/h
Spd
kts
Gust
kts
25/11:30pm 9.8 6.5 6.3 79 1.6 W 13 17 7 9 1027.1 1027.1 0.0
25/11:00pm 8.8 5.7 5.7 81 1.4 WNW 11 13 6 7 1027.2 1027.2 0.0
25/10:30pm 8.7 6.0 5.4 80 1.5 WNW 9 11 5 6 1027.3 1027.3 0.0
25/10:00pm 9.1 6.1 5.8 80 1.5 WNW 11 13 6 7 1027.3 1027.3 0.0
25/09:30pm 9.9 6.5 6.1 77 1.7 WNW 13 17 7 9 1027.3 1027.3 0.0
25/09:00pm 10.9 7.4 5.4 69 2.5 SSW 13 20 7 11 1027.2 1027.2 0.0
25/08:30pm 10.6 6.5 4.5 66 2.7 SSW 15 19 8 10 1027.1 1027.1 0.0
25/08:00pm 10.9 6.5 4.8 66 2.8 SSW 17 20 9 11 1027.0 1027.0 0.0
25/07:30pm 10.9 6.5 4.6 65 2.8 SSW 17 20 9 11 1026.9 1026.9 0.0
25/07:00pm 11.0 7.3 4.5 64 2.9 SSW 13 15 7 8 1026.6 1026.6 0.0
25/06:30pm 10.7 7.0 4.4 65 2.8 SSW 13 17 7 9 1026.4 1026.4 0.0
25/06:00pm 10.8 6.3 4.3 64 2.9 SSW 17 20 9 11 1026.1 1026.1 0.0
25/05:30pm 11.0 6.5 4.0 62 3.1 SSW 17 20 9 11 1025.9 1025.9 0.0
25/05:00pm 11.7 7.2 4.2 60 3.4 SSW 17 20 9 11 1025.6 1025.6 0.0
25/04:30pm 11.8 7.7 4.3 60 3.4 SSW 15 19 8 10 1025.5 1025.5 0.0
25/04:00pm 12.2 7.4 4.7 60 3.4 SSW 19 22 10 12 1025.4 1025.4 0.0
25/03:30pm 12.5 7.7 4.7 59 3.5 S 19 26 10 14 1025.2 1025.2 0.0
25/03:00pm 12.9 9.1 5.8 62 3.3 S 15 19 8 10 1025.2 1025.2 0.0
25/02:30pm 12.8 9.2 5.2 60 3.5 S 13 17 7 9 1025.2 1025.2 0.0
25/02:00pm 12.9 8.1 4.8 58 3.7 SSE 19 22 10 12 1025.4 1025.4 0.0
25/01:30pm 12.7 8.2 4.4 57 3.8 S 17 26 9 14 1025.4 1025.4 0.0
25/01:00pm 12.9 8.0 5.3 60 3.5 S 20 24 11 13 1025.6 1025.6 0.0
25/12:30pm 13.4 8.9 4.0 53 4.2 S 17 24 9 13 1025.8 1025.8 0.0
25/12:00pm 12.2 7.4 4.7 60 3.4 SSE 19 26 10 14 1025.9 1025.9 0.0
25/11:30am 12.7 6.5 6.1 64 3.1 S 28 41 15 22 1025.9 1025.9 0.0
25/11:29am 13.2 6.9 5.6 60 3.6 S 28 41 15 22 1025.8 1025.8 0.0
25/11:00am 12.8 9.0 3.7 54 4.1 SSW 13 19 7 10 1026.0 1026.0 0.0
25/10:30am 12.2 7.6 3.7 56 3.8 S 17 20 9 11 1026.0 1026.0 0.0
25/10:00am 11.2 4.9 4.0 61 3.2 SSE 26 35 14 19 1025.8 1025.8 0.0
25/09:48am 11.7 6.1 5.6 66 2.8 S 24 35 13 19 1025.7 1025.7 0.0
25/09:30am 10.9 2.5 3.9 62 3.1 SSW 37 44 20 24 1025.8 1025.8 0.0
25/09:10am 11.0 3.7 4.5 64 2.9 SSW 32 46 17 25 1025.4 1025.4 0.0
25/09:00am 12.4 6.8 1.4 47 4.6 SSW 20 28 11 15 1025.5 1025.5 0.0
25/08:30am 11.1 5.2 1.4 51 4.0 SSW 22 28 12 15 1025.5 1025.5 0.0
25/08:00am 10.3 3.4 2.4 58 3.4 SSW 28 33 15 18 1025.0 1025.0 0.0
25/07:30am 9.9 6.0 5.3 73 2.1 WSW 15 19 8 10 1024.6 1024.6 0.0
25/07:00am 10.5 4.8 4.9 68 2.5 S 24 30 13 16 1024.4 1024.4 0.0
25/06:30am 10.0 5.2 4.4 68 2.5 WSW 19 26 10 14 1024.0 1024.0 0.0
25/06:00am 10.5 4.4 2.6 58 3.4 SSW 24 32 13 17 1023.6 1023.6 0.0
25/05:30am 10.2 4.6 3.3 62 3.0 SSW 22 28 12 15 1023.4 1023.4 0.0
25/05:00am 9.8 4.3 4.0 67 2.6 SW 22 32 12 17 1023.3 1023.3 0.0
25/04:30am 9.7 3.7 3.4 65 2.7 SW 24 35 13 19 1023.1 1023.1 0.0
25/04:08am 10.3 3.7 4.2 66 2.7 SW 28 44 15 24 1022.7 1022.7 0.0
25/04:00am 10.1 4.9 3.6 64 2.8 SW 20 26 11 14 1022.9 1022.9 0.0
25/03:48am 10.4 3.8 4.1 65 2.8 SW 28 46 15 25 1022.9 1022.9 0.0
25/03:30am 10.5 3.9 4.0 64 2.9 SSW 28 37 15 20 1022.7 1022.7 0.0
25/03:00am 10.6 3.3 2.4 57 3.5 SSW 30 37 16 20 1022.5 1022.5 0.0
25/02:30am 10.5 3.5 2.1 56 3.5 SSW 28 32 15 17 1022.6 1022.6 0.0
25/02:00am 10.6 4.2 3.2 60 3.2 SSW 26 33 14 18 1022.8 1022.8 0.0
25/01:30am 10.5 3.4 1.6 54 3.7 SSW 28 33 15 18 1022.8 1022.8 0.0
25/01:00am 10.8 3.1 2.1 55 3.7 SSW 32 39 17 21 1022.8 1022.8 0.0
25/12:30am 11.0 3.7 2.3 55 3.7 SSW 30 39 16 21 1022.7 1022.7 0.0
25/12:00am 10.7 3.7 1.8 54 3.7 SSW 28 35 15 19 1022.5 1022.5 0.0
 
Date/Time
CST
Temp
°C
App
Temp
°C
Dew
Point
°C
Rel
Hum
%
Delta-T
°C
Wind Press
QNH
hPa
Press
MSL
hPa
Rain since
9am
mm
Dir  Spd
km/h
Gust
km/h
Spd
kts
Gust
kts
24/11:30pm 11.3 4.1 3.1 57 3.6 SSW 30 35 16 19 1022.3 1022.3 0.0
24/11:00pm 11.1 3.2 2.2 54 3.8 SSW 33 39 18 21 1022.4 1022.4 0.0
24/10:30pm 11.1 3.3 2.9 57 3.5 SSW 33 41 18 22 1022.3 1022.3 0.0
24/10:00pm 11.1 2.6 3.2 58 3.5 SSW 37 43 20 23 1022.1 1022.1 0.0
24/09:30pm 11.1 2.9 2.9 57 3.5 SSW 35 43 19 23 1022.1 1022.1 0.0
24/09:00pm 10.7 3.3 4.2 64 2.9 SSW 32 39 17 21 1021.9 1021.9 0.0
24/08:30pm 10.6 2.0 4.7 67 2.6 SSW 39 46 21 25 1021.4 1021.4 0.0
24/08:00pm 11.3 4.2 5.4 67 2.7 SSW 32 43 17 23 1021.2 1021.2 0.0
24/07:30pm 10.5 4.2 5.9 73 2.1 SSW 28 33 15 18 1020.9 1020.9 0.0
24/07:12pm 11.3 4.3 5.8 69 2.6 SW 32 54 17 29 1020.6 1020.6 0.0
24/07:00pm 11.0 3.3 5.3 68 2.6 SSW 35 43 19 23 1020.5 1020.5 0.0
24/06:30pm 11.2 3.8 6.7 74 2.1 SSW 35 44 19 24 1019.9 1019.9 0.0
24/06:00pm 11.1 2.8 6.0 71 2.4 SSW 39 54 21 29 1019.5 1019.5 0.0
24/05:30pm 11.7 4.5 5.8 67 2.7 SSW 33 44 18 24 1019.1 1019.1 0.0
24/05:00pm 12.5 4.9 5.7 63 3.2 SW 35 43 19 23 1018.9 1018.9 0.0
24/04:30pm 12.8 5.8 6.2 64 3.1 SW 32 39 17 21 1018.6 1018.6 0.0
24/04:00pm 12.3 4.3 5.7 64 3.1 SSW 37 43 20 23 1018.2 1018.2 0.0
24/03:30pm 12.6 4.3 6.0 64 3.1 SSW 39 48 21 26 1017.8 1017.8 0.0
24/03:00pm 12.8 4.3 6.8 67 2.9 SSW 41 46 22 25 1017.4 1017.4 0.0
24/02:30pm 13.2 5.7 7.9 70 2.6 SW 37 44 20 24 1017.2 1017.2 0.0
24/02:00pm 12.9 4.6 7.8 71 2.5 SSW 41 46 22 25 1016.6 1016.6 0.0
24/01:30pm 13.6 5.3 7.6 67 2.9 SW 41 50 22 27 1016.3 1016.3 0.0
24/01:00pm 14.5 5.8 7.8 64 3.3 SW 43 52 23 28 1016.1 1016.1 0.0
24/12:30pm 14.8 6.3 8.7 67 3.1 SW 43 54 23 29 1015.8 1015.8 0.0
24/12:00pm 13.9 5.9 8.9 72 2.5 SW 41 48 22 26 1015.7 1015.7 0.0
24/11:31am 13.8 7.6 9.5 75 2.2 SW 32 50 17 27 1015.5 1015.5 0.0
24/11:30am 13.7 7.3 9.4 75 2.2 SW 33 50 18 27 1015.5 1015.5 0.0
24/11:00am 15.1 9.0 8.1 63 3.5 W 30 39 16 21 1015.0 1015.0 0.0
24/10:30am 15.9 9.9 7.1 56 4.3 WNW 28 48 15 26 1015.0 1015.0 0.0
24/10:27am 16.1 9.8 7.3 56 4.4 WNW 30 48 16 26 1014.9 1014.9 0.0
24/10:00am 16.2 10.1 6.6 53 4.7 NW 28 41 15 22 1014.5 1014.5 0.0
24/09:30am 15.3 8.5 5.2 51 4.8 WNW 30 50 16 27 1014.5 1014.5 0.0
24/09:28am 15.4 9.0 5.3 51 4.8 WNW 28 50 15 27 1014.6 1014.6 0.0
24/09:00am 14.9 8.4 4.6 50 4.8 NW 28 44 15 24 1014.2 1014.2 0.0
24/08:30am 14.8 6.8 3.9 48 5.0 NW 35 56 19 30 1013.5 1013.5 0.0
24/08:00am 15.5 8.0 3.3 44 5.6 NW 32 52 17 28 1013.2 1013.2 0.0
24/07:35am 15.8 8.8 2.2 40 6.1 NNW 28 52 15 28 1013.3 1013.3 0.0
24/07:30am 15.8 9.6 2.2 40 6.1 NNW 24 39 13 21 1013.3 1013.3 0.0
24/07:00am 15.0 8.4 2.2 42 5.7 N 26 37 14 20 1012.8 1012.8 0.0
24/06:30am 13.5 8.2 3.0 49 4.7 N 20 30 11 16 1012.8 1012.8 0.0
24/06:00am 13.1 8.0 2.9 50 4.5 N 19 24 10 13 1013.0 1013.0 0.0
24/05:30am 13.6 7.6 3.1 49 4.7 N 24 35 13 19 1012.9 1012.9 0.0
24/05:00am 13.6 8.3 3.1 49 4.7 N 20 32 11 17 1013.0 1013.0 0.0
24/04:30am 13.3 8.0 2.8 49 4.6 N 20 35 11 19 1012.9 1012.9 0.0
24/04:00am 11.9 6.9 3.7 57 3.7 N 19 26 10 14 1013.0 1013.0 0.0
24/03:30am 12.2 7.1 3.2 54 4.0 N 19 24 10 13 1013.2 1013.2 0.0
24/03:00am 11.9 7.3 3.9 58 3.6 N 17 19 9 10 1013.6 1013.6 0.0
24/02:30am 12.0 8.1 3.3 55 3.8 N 13 17 7 9 1014.0 1014.0 0.0
24/02:00am 11.9 8.6 4.4 60 3.4 NE 11 15 6 8 1014.4 1014.4 0.0
24/01:30am 11.2 7.3 3.3 58 3.5 NNE 13 17 7 9 1014.6 1014.6 0.0
24/01:00am 14.0 9.9 4.3 52 4.5 N 15 26 8 14 1015.1 1015.1 0.0
24/12:55am 12.5 8.5 5.0 60 3.5 N 15 22 8 12 1015.1 1015.1 0.0
24/12:30am 7.5 4.9 4.1 79 1.5 ENE 7 11 4 6 1015.6 1015.6 0.0
24/12:00am 8.0 5.0 4.2 77 1.7 ENE 9 13 5 7 1015.8 1015.8 0.0
 
Date/Time
CST
Temp
°C
App
Temp
°C
Dew
Point
°C
Rel
Hum
%
Delta-T
°C
Wind Press
QNH
hPa
Press
MSL
hPa
Rain since
9am
mm
Dir  Spd
km/h
Gust
km/h
Spd
kts
Gust
kts
23/11:30pm 10.0 6.1 5.4 73 2.1 N 15 20 8 11 1016.1 1016.1 0.0
23/11:00pm 10.2 5.4 5.8 74 2.0 NNE 20 24 11 13 1016.3 1016.3 0.0
23/10:30pm 10.3 6.1 5.9 74 2.0 NNE 17 20 9 11 1016.7 1016.7 0.0
23/10:00pm 10.3 6.1 5.7 73 2.1 NNE 17 19 9 10 1017.0 1017.0 0.0
23/09:30pm 10.9 6.7 5.7 70 2.4 NNE 17 20 9 11 1017.3 1017.3 0.0
23/09:00pm 11.2 7.0 5.7 69 2.5 NNE 17 20 9 11 1017.5 1017.5 0.0
23/08:30pm 12.1 8.8 6.2 67 2.8 NNE 13 17 7 9 1017.8 1017.8 0.0
23/08:00pm 12.7 8.5 5.6 62 3.3 NNE 17 20 9 11 1017.9 1017.9 0.0
23/07:30pm 13.0 9.2 5.7 61 3.4 NNE 15 19 8 10 1018.4 1018.4 0.0
23/07:00pm 13.3 10.5 5.2 58 3.8 NNE 9 9 5 5 1018.7 1018.7 0.0
23/06:30pm 13.2 10.1 5.6 60 3.6 ENE 11 15 6 8 1018.8 1018.8 0.0
23/06:00pm 14.4 12.2 5.2 54 4.3 NNE 6 9 3 5 1018.7 1018.7 0.0
23/05:30pm 16.1 13.7 5.4 49 5.1 NNW 7 17 4 9 1018.8 1018.8 0.0
23/05:00pm 17.1 13.7 5.7 47 5.5 NNW 13 20 7 11 1018.7 1018.7 0.0
23/04:30pm 17.6 13.7 5.5 45 5.8 NNW 15 24 8 13 1018.8 1018.8 0.0
23/04:00pm 17.4 12.2 5.4 45 5.8 NW 22 30 12 16 1019.1 1019.1 0.0
23/03:30pm 17.4 10.7 5.4 45 5.8 NW 30 41 16 22 1019.3 1019.3 0.0
23/03:00pm 17.7 11.1 4.3 41 6.3 NNW 28 39 15 21 1019.3 1019.3 0.0
23/02:30pm 17.9 12.0 3.8 39 6.6 NW 24 37 13 20 1019.5 1019.5 0.0
23/02:00pm 17.5 10.8 3.8 40 6.4 NW 28 41 15 22 1019.7 1019.7 0.0
23/01:30pm 17.4 10.1 4.4 42 6.1 NW 32 44 17 24 1019.6 1019.6 0.0
23/01:00pm 17.2 10.6 4.2 42 6.1 NW 28 41 15 22 1020.2 1020.2 0.0
23/12:30pm 16.9 9.9 3.9 42 6.0 NW 30 37 16 20 1020.7 1020.7 0.0
23/12:00pm 16.9 11.0 5.8 48 5.4 NW 26 35 14 19 1021.6 1021.6 0.0
23/11:30am 16.8 11.3 5.7 48 5.3 NW 24 32 13 17 1022.2 1022.2 0.0
23/11:00am 15.0 11.3 7.8 62 3.6 NNE 17 20 9 11 1022.8 1022.8 0.0
23/10:30am 14.0 9.7 6.8 62 3.5 NNE 19 26 10 14 1023.2 1023.2 0.0
23/10:00am 13.2 8.7 6.8 65 3.1 NNE 20 26 11 14 1023.5 1023.5 0.0
23/09:30am 11.5 6.8 6.2 70 2.5 NNE 20 28 11 15 1023.9 1023.9 0.0
23/09:00am 10.6 6.4 5.8 72 2.2 NNE 17 20 9 11 1024.6 1024.6 0.0
23/08:30am 9.3 5.0 5.3 76 1.8 NNE 17 22 9 12 1024.9 1024.9 0.0
23/08:00am 8.0 4.4 4.9 81 1.4 NNE 13 17 7 9 1025.1 1025.1 0.0
23/07:30am 6.5 3.1 4.0 84 1.1 N 11 13 6 7 1025.4 1025.4 0.0
23/07:00am 5.8 2.2 3.0 82 1.2 NNE 11 13 6 7 1025.4 1025.4 0.0
23/06:30am 6.2 2.7 3.4 82 1.2 N 11 11 6 6 1025.2 1025.2 0.0
23/06:00am 6.3 2.8 3.3 81 1.2 N 11 13 6 7 1025.1 1025.1 0.0
23/05:30am 6.7 3.7 3.9 82 1.2 N 9 11 5 6 1024.9 1024.9 0.0
23/05:00am 7.3 4.3 4.1 80 1.4 N 9 11 5 6 1024.8 1024.8 0.0
23/04:30am 7.7 4.4 4.5 80 1.4 N 11 13 6 7 1024.8 1024.8 0.0
23/04:00am 8.2 5.2 4.2 76 1.7 N 9 11 5 6 1025.1 1025.1 0.0

Latest Capital City Observations: Canberra | Sydney | Melbourne | Brisbane | Adelaide | Perth | Hobart | Darwin

Other formats

Comma delimited format used in spreadsheet applications
http://www.bom.gov.au/fwo/IDS60901/IDS60901.94677.axf

JavaScript Object Notation format (JSON) in row-major order
http://www.bom.gov.au/fwo/IDS60901/IDS60901.94677.json

Data quality

Most of these data are generated automatically and are frequently updated. Quality checks on data are not normally performed. It is possible for incorrect values to appear. Refer to information at About Latest Weather Observations and please check the disclaimer before using these data.